createdAt,value
2022-10-14T00:00:30.204Z,95873.00
2022-10-14T00:05:58.086Z,95868.00
2022-10-14T00:11:29.826Z,95869.00
2022-10-14T00:16:57.635Z,95876.00
2022-10-14T00:22:26.214Z,95887.00
2022-10-14T00:27:54.561Z,95868.00
2022-10-14T00:33:23.093Z,95878.00
2022-10-14T00:38:53.223Z,95886.00
2022-10-14T00:44:21.007Z,95873.00
2022-10-14T00:49:48.882Z,95870.00
2022-10-14T00:55:19.174Z,95877.00
2022-10-14T01:00:47.031Z,95869.00
2022-10-14T01:06:49.140Z,95874.00
2022-10-14T01:13:01.872Z,95869.00
2022-10-14T01:18:33.837Z,95876.00
2022-10-14T01:24:33.434Z,95872.00
2022-10-14T01:30:07.126Z,95878.00
2022-10-14T01:35:48.434Z,95869.00
2022-10-14T01:41:35.209Z,95866.00
2022-10-14T01:47:04.748Z,95865.00
2022-10-14T01:52:39.651Z,95872.00
2022-10-14T01:58:09.458Z,95861.00
2022-10-14T02:03:47.096Z,95863.00
2022-10-14T02:09:28.000Z,95857.00
2022-10-14T02:15:22.168Z,95866.00
2022-10-14T02:21:36.755Z,95861.00
2022-10-14T02:27:10.254Z,95857.00
2022-10-14T02:32:40.522Z,95868.00
2022-10-14T02:38:09.128Z,95868.00
2022-10-14T02:43:37.109Z,95873.00
2022-10-14T02:49:07.115Z,95876.00
2022-10-14T02:54:34.992Z,95875.00
2022-10-14T03:00:06.504Z,95881.00
2022-10-14T03:05:36.241Z,95878.00
2022-10-14T03:11:09.929Z,95870.00
2022-10-14T03:16:38.683Z,95875.00
2022-10-14T03:22:07.859Z,95884.00
2022-10-14T03:27:38.036Z,95875.00
2022-10-14T03:33:14.339Z,95874.00
2022-10-14T03:38:48.604Z,95873.00
2022-10-14T03:44:33.032Z,95869.00
2022-10-14T03:50:19.474Z,95869.00
2022-10-14T03:55:51.402Z,95870.00
2022-10-14T04:01:19.572Z,95868.00
2022-10-14T04:07:13.519Z,95854.00
2022-10-14T04:12:48.458Z,95859.00
2022-10-14T04:18:23.192Z,95850.00
2022-10-14T04:23:54.506Z,95838.00
2022-10-14T04:29:34.671Z,95838.00
2022-10-14T04:35:09.682Z,95835.00
2022-10-14T04:40:45.538Z,95830.00
2022-10-14T04:46:14.158Z,95831.00
2022-10-14T04:51:43.064Z,95827.00
2022-10-14T04:57:22.660Z,95821.00
2022-10-14T05:02:50.566Z,95812.00
2022-10-14T05:08:20.797Z,95804.00
2022-10-14T05:13:52.853Z,95807.00
2022-10-14T05:19:23.220Z,95801.00
2022-10-14T05:24:53.239Z,95798.00
2022-10-14T05:30:21.772Z,95792.00
2022-10-14T05:35:59.202Z,95795.00
2022-10-14T05:41:30.064Z,95804.00
2022-10-14T05:46:57.957Z,95800.00
2022-10-14T05:52:33.478Z,95797.00
2022-10-14T05:58:05.166Z,95796.00
2022-10-14T06:03:37.963Z,95789.00
2022-10-14T06:09:11.029Z,95782.00
2022-10-14T06:14:39.276Z,95777.00
2022-10-14T06:20:08.000Z,95787.00
2022-10-14T06:25:36.927Z,95781.00
2022-10-14T06:31:05.759Z,95789.00
2022-10-14T06:36:34.162Z,95789.00
2022-10-14T06:42:03.535Z,95789.00
2022-10-14T06:47:32.758Z,95790.00
2022-10-14T06:53:00.644Z,95783.00
2022-10-14T06:58:29.197Z,95783.00
2022-10-14T07:03:57.024Z,95781.00
2022-10-14T07:09:25.190Z,95784.00
2022-10-14T07:14:53.463Z,95786.00
2022-10-14T07:20:21.177Z,95780.00
2022-10-14T07:25:48.912Z,95772.00
2022-10-14T07:31:16.814Z,95761.00
2022-10-14T07:36:44.691Z,95768.00
2022-10-14T07:42:12.428Z,95764.00
2022-10-14T07:47:40.226Z,95769.00
2022-10-14T07:53:07.955Z,95768.00
2022-10-14T07:58:35.841Z,95767.00
2022-10-14T08:04:04.373Z,95775.00
2022-10-14T08:09:35.429Z,95774.00
2022-10-14T08:15:03.774Z,95772.00
2022-10-14T08:20:32.661Z,95778.00
2022-10-14T08:26:00.519Z,95771.00
2022-10-14T08:31:28.965Z,95771.00
2022-10-14T08:36:56.743Z,95775.00
2022-10-14T08:42:49.695Z,95767.00
2022-10-14T08:48:25.199Z,95771.00
2022-10-14T08:54:00.219Z,95765.00
2022-10-14T08:59:28.197Z,95756.00
2022-10-14T09:04:59.300Z,95767.00
2022-10-14T09:10:31.862Z,95766.00
2022-10-14T09:16:34.636Z,95760.00
2022-10-14T09:22:02.784Z,95754.00
2022-10-14T09:27:30.679Z,95758.00
2022-10-14T09:32:59.939Z,95751.00
2022-10-14T09:38:28.160Z,95753.00
2022-10-14T09:44:18.597Z,95754.00
2022-10-14T09:49:48.643Z,95757.00
2022-10-14T09:55:21.583Z,95743.00
2022-10-14T10:00:57.891Z,95741.00
2022-10-14T10:06:27.153Z,95734.00
2022-10-14T10:11:55.950Z,95740.00
2022-10-14T10:17:24.126Z,95734.00
2022-10-14T10:22:52.419Z,95741.00
2022-10-14T10:28:32.451Z,95738.00
2022-10-14T10:34:53.150Z,95718.00
2022-10-14T10:40:29.662Z,95705.00
2022-10-14T10:47:13.398Z,95699.00
2022-10-14T10:53:04.192Z,95689.00
2022-10-14T10:59:03.392Z,95688.00
2022-10-14T11:04:56.172Z,95692.00
2022-10-14T11:11:20.268Z,95684.00
2022-10-14T11:17:46.812Z,95668.00
2022-10-14T11:23:49.254Z,95660.00
2022-10-14T11:29:47.856Z,95659.00
2022-10-14T11:41:47.654Z,95632.00
2022-10-14T11:47:34.639Z,95629.00
2022-10-14T11:53:31.016Z,95617.00
2022-10-14T11:59:49.368Z,95620.00
2022-10-14T12:06:03.026Z,95619.00
2022-10-14T12:11:50.793Z,95617.00
2022-10-14T12:17:34.805Z,95616.00
2022-10-14T12:23:06.355Z,95615.00
2022-10-14T12:28:37.791Z,95600.00
2022-10-14T12:34:11.647Z,95590.00
2022-10-14T12:39:42.667Z,95578.00
2022-10-14T12:45:21.995Z,95580.00
2022-10-14T12:51:13.251Z,95575.00
2022-10-14T12:56:57.974Z,95579.00
2022-10-14T13:02:38.619Z,95570.00
2022-10-14T13:08:19.651Z,95566.00
2022-10-14T13:13:49.458Z,95566.00
2022-10-14T13:19:36.494Z,95569.00
2022-10-14T13:25:18.366Z,95557.00
2022-10-14T13:31:25.781Z,95558.00
2022-10-14T13:37:06.079Z,95563.00
2022-10-14T13:42:36.868Z,95556.00
2022-10-14T13:48:06.309Z,95574.00
2022-10-14T13:53:34.459Z,95573.00
2022-10-14T13:59:39.266Z,95572.00
2022-10-14T14:05:15.165Z,95574.00
2022-10-14T14:11:18.887Z,95576.00
2022-10-14T14:16:57.783Z,95579.00
2022-10-14T14:22:28.959Z,95600.00
2022-10-14T14:28:01.694Z,95612.00
2022-10-14T14:33:33.046Z,95609.00
2022-10-14T14:39:03.032Z,95605.00
2022-10-14T14:44:34.162Z,95603.00
2022-10-14T14:50:29.995Z,95604.00
2022-10-14T14:55:54.117Z,95591.00
2022-10-14T15:01:26.407Z,95586.00
2022-10-14T15:07:21.591Z,95572.00
2022-10-14T15:12:56.227Z,95567.00
2022-10-14T15:18:28.624Z,95559.00
2022-10-14T15:23:58.417Z,95555.00
2022-10-14T15:29:26.299Z,95560.00
2022-10-14T15:35:01.223Z,95546.00
2022-10-14T15:40:32.899Z,95548.00
2022-10-14T15:46:19.643Z,95535.00
2022-10-14T15:51:47.705Z,95534.00
2022-10-14T15:57:17.678Z,95537.00
2022-10-14T16:02:58.591Z,95532.00
2022-10-14T16:08:26.917Z,95517.00
2022-10-14T16:13:55.132Z,95510.00
2022-10-14T16:19:23.033Z,95513.00
2022-10-14T16:24:50.837Z,95512.00
2022-10-14T16:30:18.726Z,95510.00
2022-10-14T16:35:51.917Z,95520.00
2022-10-14T16:41:19.709Z,95518.00
2022-10-14T16:47:06.394Z,95516.00
2022-10-14T16:52:55.154Z,95527.00
2022-10-14T16:58:22.996Z,95528.00
2022-10-14T17:03:50.852Z,95527.00
2022-10-14T17:09:19.418Z,95514.00
2022-10-14T17:14:47.273Z,95519.00
2022-10-14T17:20:15.308Z,95517.00
2022-10-14T17:25:46.269Z,95522.00
2022-10-14T17:31:19.068Z,95526.00
2022-10-14T17:36:47.063Z,95521.00
2022-10-14T17:42:15.784Z,95522.00
2022-10-14T17:47:43.982Z,95525.00
2022-10-14T17:53:12.704Z,95526.00
2022-10-14T17:58:41.233Z,95525.00
2022-10-14T18:04:09.075Z,95527.00
2022-10-14T18:09:36.877Z,95527.00
2022-10-14T18:15:05.277Z,95518.00
2022-10-14T18:20:36.420Z,95516.00
2022-10-14T18:26:09.539Z,95516.00
2022-10-14T18:31:40.493Z,95517.00
2022-10-14T18:37:09.844Z,95523.00
2022-10-14T18:42:37.885Z,95518.00
2022-10-14T18:48:06.009Z,95526.00
2022-10-14T18:53:34.302Z,95522.00
2022-10-14T18:59:15.259Z,95511.00
2022-10-14T19:04:43.281Z,95496.00
2022-10-14T19:10:11.198Z,95506.00
2022-10-14T19:15:45.339Z,95501.00
2022-10-14T19:21:19.233Z,95504.00
2022-10-14T19:26:47.702Z,95503.00
2022-10-14T19:32:15.486Z,95505.00
2022-10-14T19:37:43.205Z,95505.00
2022-10-14T19:43:11.088Z,95492.00
2022-10-14T19:48:39.706Z,95485.00
2022-10-14T19:54:07.980Z,95485.00
2022-10-14T19:59:35.948Z,95465.00
2022-10-14T20:05:04.025Z,95465.00
2022-10-14T20:10:31.962Z,95460.00
2022-10-14T20:16:02.303Z,95461.00
2022-10-14T20:21:31.726Z,95450.00
2022-10-14T20:26:59.885Z,95460.00
2022-10-14T20:32:27.654Z,95459.00
2022-10-14T20:37:55.661Z,95436.00
2022-10-14T20:43:23.830Z,95445.00
2022-10-14T20:48:57.112Z,95444.00
2022-10-14T20:54:30.567Z,95423.00
2022-10-14T20:59:59.741Z,95417.00
2022-10-14T21:05:46.718Z,95422.00
2022-10-14T21:11:18.783Z,95427.00
2022-10-14T21:16:47.492Z,95423.00
2022-10-14T21:22:15.807Z,95424.00
2022-10-14T21:27:43.991Z,95416.00
2022-10-14T21:33:11.855Z,95406.00
2022-10-14T21:38:40.803Z,95404.00
2022-10-14T21:44:11.475Z,95397.00
2022-10-14T21:49:39.436Z,95382.00
2022-10-14T21:55:08.089Z,95374.00
2022-10-14T22:00:35.950Z,95366.00
2022-10-14T22:06:10.576Z,95364.00
2022-10-14T22:11:41.021Z,95359.00
2022-10-14T22:17:09.068Z,95370.00
2022-10-14T22:22:36.884Z,95367.00
2022-10-14T22:28:06.110Z,95358.00
2022-10-14T22:33:38.716Z,95346.00
2022-10-14T22:39:11.246Z,95336.00
2022-10-14T22:44:39.049Z,95331.00
2022-10-14T22:50:07.538Z,95328.00
2022-10-14T22:55:35.309Z,95343.00
2022-10-14T23:01:15.528Z,95332.00
2022-10-14T23:06:46.752Z,95319.00
2022-10-14T23:12:14.547Z,95322.00
2022-10-14T23:17:42.334Z,95315.00
2022-10-14T23:23:10.044Z,95307.00
2022-10-14T23:28:38.590Z,95305.00
2022-10-14T23:34:12.050Z,95306.00
2022-10-14T23:39:39.849Z,95300.00
2022-10-14T23:45:08.845Z,95293.00
2022-10-14T23:50:36.606Z,95295.00
2022-10-14T23:56:05.917Z,95289.00
